SMRA40 UAOL 300900
AAXX 30091
40030 42970 00000 10322 20125 40170 58003=
40080 42965 00907 10310 20092 39452 40135 58001=
40095 38598 42698 72404 10224 20061 40131 57005 87500=
40417 42960 09902 10360 20090 30064 40078 333 58023=
40582 32960 03408 10362 20071 40089 58007 333 55310 00757 10000 22116 30913 =
40703 42965 00606 10266 20039 38921 40116 58008 555 10146 29023 66666 00276 =
40706 42970 01403 10277 21011 38661 40105 58010 555 10135 29015 66666 00260 =
40712 42970 00403 10266 20036 38689 40116 58001 555 10144 29023 66666 00243 =
40713 42962 02402 10293 21016 38666 40090 58002 555 10140 29013 66666 00249 =
40718 42560 23502 10272 20212 30205 40178 58003 82800 333 82825 555 10232 29=
40723 41959 02806 10243 20121 38970 40137 57003 70500 555 10170=
40726 42960 00506 10266 21003 38659 40094 58005 555 10132 29017 66666 00232 =
40727 42965 02804 10307 21015 38492 40103 57011 555 10145 29012 66666 00284 =
40732 42560 73507 10260 20212 30186 40163 50000 85370 333 82923 84627 87458 =
40736 42560 82903 10252 20216 30189 40165 53003 8632/ 333 84720 82925 88459 =
40737 42560 73004 10260 20237 30153 40170 50003 84570 333 84630 87358 555 10=
40738 41556 72806 10285 20216 30174 40176 50001 70520 82270 333 82825 86359 =
40739 42965 00805 10294 20070 38689 40086 58008 555 10166 29024 66666 00300 =
40741 42960 03005 10330 20099 39801 40113 57009 555 10195=
40743 42965 02202 10353 21013 39037 40071 58010 555 10167 29010 66666 00376 =
40745 42962 01506 10307 20082 39026 40101 58003 555 10177=
40747 42965 09901 10307 21073 38643 40103 57016 555 10135 29008 66666 00312 =
40754 42960 02404 10328 21042 38820 40070 58007 555 10150 29009=
40762 42962 03402 10315 21035 38552 40073 57011 555 10144 29010 66666 00350 =
40766 42960 02002 10317 21147 38703 40096 57009 555 10130 29004 66666 00366 =
40768 42962 03202 10295 21082 38274 40079 57008 555 10125 29008 66666 00358 =
40769 41958 00402 10301 20015 38318 40076 58007 70500 555 10149 29016 66666 =
40780 42960 02604 10334 20013 38692 40098 58003 555 10163 29013 66666 00320 =
40782 42962 03001 10333 21032 38856 40083 57014 555 10154 29009 66666 00288 =
40785 42960 03201 10345 21083 39060 40083 57011 555 10152 29006 66666 00380 =
40791 42960 00000 10372 21072 39308 40070 57014 555 10166 29006 66666 00370 =
40792 42962 02703 10321 21046 38713 40077 58010 555 10146 29009 66666 00328 =
40798 42960 03402 10274 21134 37996 40101 58011 555 10107=
40800 42960 01302 10319 21049 38472 40087 57013 555 10142 29009 66666 00358 =
40809 42965 02802 10327 21148 38491 40067 57014 555 10132 29004 66666 00340 =
40811 41956 02902 10380 20059 30046 40071 58010 70500 555 10202=
40812 42960 02502 10385 20047 39712 40063 57010 555 10198 29013 66666 00402 =
40818 42962 01904 10266 21075 38002 40080 57015 555 10112 29010 66666 00256 =
40821 42965 02101 10340 21054 38780 40077 57013 555 10152 29008 66666 00366 =
40829 42965 00105 10372 21006 39514 40051 57023 555 10179 29009 66666 00374 =
40831 41958 02905 10377 20081 30080 40088 56006 70500 555 10207 29017 66666 =
40833 42960 03002 10400 20051 30055 40085 58005 555 10207 29012 66666 00420 =
40835 42960 00000 10356 20022 39294 40050 57008 555 10178 29012 66666 00352 =
40841 42970 03103 10287 21050 38248 40061 57017 555 10128 29011 66666 00262 =
40845 42960 00402 10338 20255 30076 40081 58001 555 10278 29062 66666 00360 =
40848 42960 01802 10314 21040 38514 40049 57018 555 10142 29010 66666 00328 =
40851 42660 10000 10294 21020 38267 40042 58012 81400 333 81640 555 10137 29=
40854 42960 00303 10354 21060 38917 40041 57014 555 10158 29007 66666 00454 =
40856 42962 03503 10322 21064 38617 40061 57018 555 10142 29008 66666 00390 =
40859 42960 01205 10330 21020 38686 40063 58014 555 10154=
40875 41557 32006 10333 20250 30068 40079 58009 70520 83500 333 83630 555 10=
40879 41658 21902 10348 20177 39414 40047 57025 70500 82200 333 82840 555 10=
40882 41557 11604 10336 20263 30044 40077 58011 70500 81100 555 10283 29066 =
40883 41540 21804 10346 20248 30050 40071 57010 70500 82400 333 82630 555 10=
40893 41957 01705 10300 20262 30071 40077 57015 71000 555 10272=
40898 41558 32005 10313 20237 30052 40061 57022 70500 83600 222// 00288 2090=
41255 32960 01705 10329 20193 39551 41040 333 5////=
41397 62708 10340 20287 40072 5/010 70211 84618 22273 00340 2//// 332// 4060=
41498 73620 10204 20171 40233 53001 72052 86268 22224 00246 20403 303// 4090=
41630 21996 01304 10360 20197 40051 70500 333 58003 60007=
41696 22997 03104 10260 20043 37993 48471 333 58000 60007=
41997 00615 10270 20193 40160 51010 70200 80000 22253 20202 323// 40402 8022=
42001 30091 99259 70897 46/// /0104 10248 20167 30113 40116 90840 22200 0029=
43475 22470 32304 10342 20223 30049 40053 83200 333 58010 60007 83818=
44212 32599 50504 10037 21185 39078 40194 52009 82120 333 91110 91205=
44213 41698 70000 10000 21048 38740 40194 52010 70272 87500 333 91200=
44214 32998 12706 10019 21233 38211 40156 53002 81040 333 91116 91211=
44215 32698 12705 10031 21211 38341 40151 52001 81100 333 91112 91208=
44217 32998 02004 11033 21165 37791 40219 54000 333 91206=
44218 32999 22807 10088 21257 38525 40107 53003 82040 333 91116 91209=
44219 32699 32808 10106 21135 38527 40080 53002 81144 333 91112 91209=
44265 32699 72404 10082 21019 38796 40158 57005 83571 333 91204=
44266 31699 62714 10060 21080 37707 40105 57006 70733 84844 333 91119 91215=
48052 32458 60000 10367 20283 84701 333 56909=



SMUS40 KWBC 300900
AAXX 30094
40103 42565 13206 10296 20216 40162 52003 81100 333 81824 92427=
40180 42960 03005 10311 20226 30100 40146 57003 333 70000=
40199 429// ///// 333 70000=
40270 42960 00503 10315 20063 39291 40140 52001=
40272 41950 01107 10320 20072 39353 40144 57001 70500=
40340 42960 03614 10350 20130 40126 57010=
40356 42960 03312 10300 20140 39195 48536 333 58033 555 04410 50117=
40357 42960 03206 10320 20080 39499 40103 333 58010=
40360 42960 03004 10324 20070 39567 40123 333 58022=
40361 42960 00406 10330 20090 39380 40107 333 58007=
40362 42960 03107 10328 21020 39611 40102 333 58016=
40373 42960 03304 10357 20060 39702 40098 333 58020=
40375 42960 00704 10324 20060 39276 40107 333 58007=
40394 42960 03404 10308 20030 39026 48525 333 58014 555 04410 50103 =
40400 42960 02413 10342 20240 30052 40079 333 58005=
40405 42960 01005 10320 20060 39380 40084 333 59014=
40420 42960 03407 10353 21020 39879 40078 333 58020=
40430 42960 00904 10344 21040 39395 40096 333 58023=
40437 42960 01003 10342 20030 39419 40087 333 58016=
40439 42960 00618 10426 20060 30043 40061 333 58006=
41024 42960 03006 10391 20170 30031 40054 333 58000=
41036 42960 02405 10304 21070 38557 48508 333 58004 555 04410 50077=
41055 42960 00904 10296 20050 38359 48501 333 58001 555 04410 50066=
41061 42960 01504 10345 20070 39391 40063 333 58001=
41084 42960 00305 10339 20010 38828 48495 333 58000 555 04410 50042=
41112 42560 21504 10267 21080 37946 48501 82100 333 58002 82820 555 04410 50=
41114 30091 99276 70802 46/// ///// 1//// 90856 22200 00274 11303 20603 304/=
41128 42960 01506 10330 20010 38788 48503 333 58001 555 04410 50067=
41136 42960 00310 10357 20020 39287 40060 333 58011=
41140 41557 32410 10360 20270 30062 40072 70600 83100 333 58019 83830=
41150 41150 42966 10335 20202 03107 40082 333 58020=
41170 42960 10210 10338 20222 30065 40078 81100 333 58020 81840=
41176 44/68 /1904 10330 20206 30068 40074 333 58022=
41184 41958 03507 10374 20227 40067 70600 333 58015=
41194 42960 00205 10379 20155 30060 40065 333 58016=
41196 42960 09902 10380 20138 30032 40070 333 58017=
41216 42960 03607 10375 20184 30061 40065 333 58011=
41217 42960 01205 10383 20181 30032 40059 333 58011=
41256 32560 30310 10319 20270 30057 40074 82500 90849 333 58016 55407 55408 =
41316 22682 49910 10296 20225 30060 40089 83501 333 58013 55407 55408 55507 =
41480 40582 32960 03408 10362 20071 40089 58007 333 55310 00757 10000 22116 =
41506 22997 01812 10300 20097 38454 48451 333 59008 60007=
41508 22697 22702 10297 20135 38636 48515 82200 333 56900 58008 60007 82835=
41515 22697 32304 10285 20121 38495 48459 83100 333 56900 58019 60007 83850=
41523 22997 00000 10300 20180 39040 48491 333 58000 60007=
41535 22697 21302 10265 20165 38688 48469 82500 333 56900 58000 60007 82640=
41536 22997 01803 10305 20139 38986 48490 333 58005 60007=
41560 22697 41302 10270 20199 38263 48475 83430 333 56990 59003 60007 81425 =
41571 21696 42304 10320 20196 39498 40047 70500 83830 333 56990 58002 60007=
41598 63514 10190 20156 40165 55002 700// 8657/ 22284 06230 2//// 80170=
41600 22696 60000 10325 20232 40047 83570 333 56990 58003 60007 83540 83760=
41620 32997 01805 10315 21000 38554 48462 333 58009 60007=
41624 22997 00000 10350 20237 40038 333 58000 60007=
41640 21996 20000 10345 20205 40047 70500 82030 333 56090 58002 60007 82360=
41660 22697 13110 10280 21017 38407 48491 81400 333 56900 58006 60007 81840=
41678 22997 02702 10380 20272 40051 333 59003 60007=
41697 22997 00000 10370 20244 40037 333 58011 60007=
41700 21996 02312 10380 20153 40034 70500 333 58007 60007=
41710 22997 01302 10370 21028 49999 333 58006 60007=
41712 22997 01802 10365 20044 39140 48503 333 58015 60007=
41715 21996 00502 10335 20259 40056 70500 333 58006 60007=
41718 21996 02304 10375 20216 40044 70500 333 58007 60007=
41725 21996 00504 10370 20210 49972 70500 333 59001 60007=
41739 22696 12310 10320 20128 38990 48477 81500 333 56900 58003 60007 81635=
41744 22696 30000 10315 20020 38744 48484 83500 333 56900 58000 60007 83630=
41749 22996 01804 10355 20259 40064 333 58017 60007=
41756 21596 32304 10305 20225 40085 70504 83400 333 56900 58010 60007 83625=
41759 21996 02304 10315 20229 40079 70501 333 58002 60007=
41764 22996 02116 10340 20216 30011 40058 333 58009 60007=
41768 22996 22308 10350 20220 40063 82030 333 56090 58007 60007 82360=
41780 22696 32310 10320 20234 30046 40072 83500 333 56900 58004 60007 83630=
41785 22597 42306 10320 20226 40062 84600 333 56500 59001 60007 84730=
41859 32450 60502 10346 20250 39992 40028 82520 333 56190 59006 70000 82618 =
41883 32456 62702 10344 20260 30003 40023 84810 333 56690 59007 70000 83616 =
41891 31450 62904 10350 20260 39974 40011 70511 83340 333 56990 59004 70000 =
41907 32450 70000 10340 20250 30001 40015 82510 333 56990 59004 70000 82615 =
41923 32456 42102 10353 20240 30014 40024 83430 333 56990 59003 70000 82616 =
41936 31450 50000 10354 20250 30015 40022 70522 82830 333 56990 59001 70000 =
41943 31440 73102 10330 20260 39993 40001 70522 83520 333 56990 59003 70000 =
41950 32456 50000 10350 20260 30017 40019 83431 333 56999 58003 70000 41891 =
41978 21440 80000 10280 20260 30016 40022 70296 8532/ 333 56999 58004 6007/ =
42027 32596 20501 10264 20108 38380 48460 81120 333 59006=
42071 32996 02904 10334 20240 40043 333 59007=
42097 30091 99257 70837 46/// ///// 1//// 90856 22200 00271 10603 20603 7001=
42101 32696 23202 10324 20266 40054 82500 333 58001 82635=
42111 31595 52302 10320 20236 39349 40012 70511 84800 333 59004 81620 84835=
42123 32996 00000 10380 20191 40043 333 58003=
42131 32696 13201 10342 20223 40047 81100 333 58004=
42165 32696 22302 10380 20217 40036 82500 333 58003 82635=
42182 31695 42706 10338 20235 40037 70511 82530 333 58000 82635 84360=
42189 31595 42301 10326 20231 40033 70521 84800 333 59001 83620 84830=
42309 32596 21603 10346 20266 40021 82200 333 59010=
42314 32596 20704 10340 20250 40018 82130 333 59010 82825=
42328 32996 02304 10370 20146 40027 333 58003=
42339 31595 12701 10358 20196 40053 70500 81100 333 58001 81830=
42348 32596 22705 10350 20177 40054 82500 333 58007 82630=
42361 31596 40000 10346 20237 40036 70510 84400 333 58003 83825=
42369 31596 60000 10340 20250 40043 70522 86800 333 58005 83620 84825=
42379 31595 40000 10332 20234 40032 70521 84800 333 58006 82620 83825=
42410 31596 32303 10344 20258 40020 70500 82430 333 59012 82620=
42415 32596 30000 10338 20251 40028 81501 333 59006 81620 83075=
42452 31996 00000 10346 20238 40041 70500 333 58000=
42492 21494 81404 10266 20257 40035 76322 8472/ 333 58007 6009/ 83618 88458=
42559 32596 400// 10340 20188 40035 84200 333 58008 84825=
42571 32596 50000 10340 20217 40030 85800 333 58004 82625 84360=
42591 31496 40000 10324 20263 40036 70511 84400 333 58006 82618 83825=
42623 31496 61401 10313 20239 39189 40016 70522 83830 333 58013 82618 82820 =
42634 32596 30000 10340 20210 40080 83800 333 58006 82620=
42647 32596 22703 10348 20216 40069 82500 333 56600 58005 82620=
42667 32596 43409 10330 20226 39476 40039 84200 333 58002 84830=
42675 32596 30502 10330 20219 40041 83200 333 58011 83830=
42701 31496 61406 10296 20234 39321 40021 70622 84320 333 59001 83618 83825 =
42724 31596 60000 10348 20268 40017 70522 83430 333 59003 82620 83325 85360=
42737 32596 22910 10344 20215 40072 82800 333 58004 82620=
42754 32596 40504 10334 20185 39426 40032 84800 333 58003 82620 84825=
42779 32596 30503 10306 20214 39358 40029 83800 333 58006 82620 83825=
42798 31596 50000 10322 20251 40025 70522 84330 333 57931 58014 83620 81930 =
42809 31495 73402 10336 20258 40025 70522 85430 333 58003 83618 83825 85360=
42840 32596 23205 10330 20251 40072 82200 333 58005 82825=
42867 31496 43605 10332 20221 40036 70500 84800 333 58005 82618 83825=
42874 21596 50502 10294 20260 40036 76022 85430 333 58005 6994/ 82620 84825=
42886 31596 50502 10324 20251 40029 70510 85500 333 58008 85620=
42895 32596 40502 10326 20262 40018 82530 333 59002 82620 83360=
42909 32596 22703 10300 20267 40080 82200 222// 20000 333 58007 82825=
42971 21496 70208 10320 20270 40030 76062 85330 333 57932 58007 6994/ 84618 =
43003 31595 53206 10316 20260 40065 70422 85800 333 58000 83620 84825=
43014 31596 60000 10318 20228 39404 40026 70542 86800 333 58003 83620 84825=
43041 32596 43041 32596 39428 40026 82500 333 58005 82625=
43063 32597 50000 10316 20222 39443 40045 84801 333 58005 82626 83828=
43086 32597 60000 10320 20233 39850 40022 82838 333 59003=
43110 32497 73211 10300 20252 40071 87400 333 56700 58000 84618 84822=
43117 32596 61802 10320 20190 40040 83430 333 58015=
43128 21496 63603 10293 20219 39438 40027 71796 85930 333 56890 57952 58005 =
43150 32497 70906 10330 20260 39963 40024 84231 333 57852 58001 84618 81825 =
43185 21596 82004 10300 20263 30019 40022 71795 8432/ 333 57941 58008 6992/ =
43189 32597 80000 10292 20266 30020 40029 8357/ 333 58000=
43192 22496 73202 10296 20254 40075 83772 333 58010 6992/=
43198 31495 72714 10292 20208 39231 40030 71792 84932 333 56699 57912 57932 =
43201 21497 82702 10264 20230 39310 40021 72122 83572 333 58000 6992/ 83615 =
43213 21497 82903 10268 20235 39722 40035 70265 8387/ 333 56699 58012 6009/=
43233 32497 62708 10242 20213 39259 40068 83620 333 56690 58011=
43237 32497 82705 10262 20226 39639 40026 8277/ 333 56690 58017 81710 84360=
43245 22597 82702 10272 20252 30013 40039 8487/ 333 58017 6002/=
43279 21597 82503 10300 20230 30026 40043 70252 8457/ 333 58016 6990/ 84620 =
43284 21195 80000 10236 20221 39965 40081 79596 8497/ 333 57912 57962 58018 =
43295 21496 72905 10250 20183 39056 48472 76022 85830 333 56699 58010 84612 =
43314 32597 70000 10306 20249 40083 82472 333 58019=
43321 31496 62314 10310 20194 39623 40059 70522 82531 333 58012 82612 83358 =
43329 32597 82502 10316 20254 30028 40041 82532 333 58012=
43333 21495 82903 10268 20248 40046 75065 85422 333 56699 59037 6003/ 84616 =
43344 32496 72908 10330 20215 39960 40057 83531 333 58013 83616 85358=
43353 32496 63005 10306 20237 40086 83530 333 56790 58019 83614 85359=
43369 32597 32902 10312 20243 40094 81530 333 85016 81620 88360=
43371 32497 63205 10304 20235 30015 40087 84411 333 58026 83618=
43404 21470 62305 10312 20253 30047 40059 70292 83266 333 58013 60007 83818 =
43410 22470 5//05 10326 20224 30045 40048 84106 333 58004 60007 84818 85080=
43413 22470 62312 10296 20253 30068 40072 84102 333 58016 60007 84818 85080=
43415 22470 42701 10328 20252 39955 40063 84100 333 58008 60007 84818=
43418 22470 62304 10332 20224 30009 40050 82136 333 58013 60007 82818 85280=
43421 22470 42302 10322 20229 39961 40064 82102 333 58017 60007 82818 83080=
43422 22470 82508 10310 20205 39933 40064 83106 333 58017 60007 83818 86280=
43424 22470 72308 10302 20242 30073 40075 84106 333 58019 60007 84818 85278=
43436 22470 70904 10316 20245 30052 40055 84966 333 58015 60007 83818 81920 =
43441 22470 62301 10297 20229 39941 40072 83201 333 58017 60007 83818 84080=
43444 21470 72303 10257 20224 39548 40077 70282 85170 333 58017 60017 85818 =
43450 22460 72412 10302 20242 30072 40084 84106 333 58014 60007 84817 87278=
43466 21470 72307 10292 20243 30070 40083 70282 85206 333 58012 69907 85818 =
43467 21470 72508 10300 20246 30080 40086 70382 85906 333 58013 60037 84816 =
43473 21370 72709 10169 20140 38112 48475 76062 877// 333 58007 69917 81709 =
43476 22470 72304 10240 20182 38742 48490 82107 333 58003 60007 82810 85270=
43479 22470 81804 10292 20175 39227 86906 333 58007 60007 82816 81920 83628 =
43486 21465 82303 10275 20239 39999 40097 71798 8497/ 333 58023 60037 83816 =
43495 21470 72714 10280 20254 30067 40081 70382 83231 333 58011 69957 83818 =
43497 21470 42505 10305 20243 30055 40073 70362 83202 333 58024 69907 83818 =
48010 32560 22201 10363 20264 39859 40005 82400 333 56500 59010=
48020 31357 71801 10290 20248 71799 86930 333 56490=
48025 21250 80401 10276 20256 39911 40049 79595 8597/ 333 56999 58023=
48031 32257 72201 10265 20215 70222 87800 333 56400=
48048 31558 72701 10345 20270 39958 40012 70292 85950 333 56110 58010=
48062 32557 60902 10308 20282 30087 40020 85970 333 56990 59001=
48064 32460 31401 10330 20244 39951 40068 82801 333 56909 58005=
48071 32458 73203 10315 20265 30018 40026 85970 333 56790 58003=
48080 32459 82203 10310 20254 30012 40022 85870 333 56390 58007=
48094 21457 81801 10277 20270 30048 40035 76066 8597/ 333 5659/ 58011=
48109 32496 82302 10297 20253 30040 40044 8697/ 333 5699/ 58009=